Time;durP1;ratioP1;P1;durP2;ratioP2;P2;SDS_P1;SDS_P2;PMS_P1;PMS_P2;Temp;Humidity;BMP_temperature;BMP_pressure;BME280_temperature;BME280_humidity;BME280_pressure;Samples;Min_cycle;Max_cycle;Signal;HPM_P1;HPM_P2
2022/05/07 00:02:09;;;;;;;22.10;16.13;;;12.80;99.90;;;;;;2613418;54;20411;-73
2022/05/07 00:04:38;;;;;;;17.90;16.10;;;12.60;99.90;;;;;;2613283;39;20607;-72
2022/05/07 00:07:04;;;;;;;19.13;14.97;;;12.60;99.90;;;;;;2612325;39;20766;-73
2022/05/07 00:09:31;;;;;;;17.13;15.43;;;12.50;99.90;;;;;;2611827;39;20894;-73
2022/05/07 00:11:58;;;;;;;18.30;15.70;;;12.60;99.90;;;;;;2611622;54;20491;-75
2022/05/07 00:14:24;;;;;;;16.33;14.60;;;12.60;99.90;;;;;;2611432;54;21554;-73
2022/05/07 00:19:34;;;;;;;19.17;15.90;;;12.40;99.90;;;;;;2612837;54;20392;-73
2022/05/07 00:22:01;;;;;;;18.63;16.40;;;12.50;99.90;;;;;;2613520;47;21492;-73
2022/05/07 00:24:27;;;;;;;16.43;14.73;;;12.40;99.90;;;;;;2613968;39;20781;-73
2022/05/07 00:26:53;;;;;;;18.43;16.50;;;12.40;99.90;;;;;;2613902;39;20882;-73
2022/05/07 00:29:19;;;;;;;19.30;17.20;;;12.40;99.90;;;;;;2613302;54;20419;-74
2022/05/07 00:31:45;;;;;;;20.20;17.43;;;12.30;99.90;;;;;;2611814;46;20162;-76
2022/05/07 00:34:11;;;;;;;24.17;18.60;;;12.10;99.90;;;;;;2614013;54;20182;-77
2022/05/07 00:36:37;;;;;;;20.87;18.37;;;11.90;99.90;;;;;;2612906;39;20840;-77
2022/05/07 00:39:03;;;;;;;24.27;18.70;;;12.00;99.90;;;;;;2612572;54;20155;-74
2022/05/07 00:41:29;;;;;;;24.73;17.40;;;11.90;99.90;;;;;;2614031;39;20527;-73
2022/05/07 00:43:55;;;;;;;20.87;17.60;;;11.90;99.90;;;;;;2611142;54;20411;-73
2022/05/07 00:46:25;;;;;;;18.60;16.60;;;12.10;99.90;;;;;;2612793;54;20214;-82
2022/05/07 00:48:51;;;;;;;21.40;17.77;;;12.20;99.90;;;;;;2613852;54;20457;-82
2022/05/07 00:51:33;;;;;;;18.67;15.90;;;12.20;99.90;;;;;;2613482;54;20386;-78
2022/05/07 00:54:03;;;;;;;25.70;18.30;;;12.20;99.90;;;;;;2611727;47;20447;-79
2022/05/07 00:56:30;;;;;;;18.47;15.57;;;12.00;99.90;;;;;;2612324;47;20475;-78
2022/05/07 00:58:57;;;;;;;21.03;18.80;;;11.80;99.90;;;;;;2611559;54;20399;-77
2022/05/07 01:01:23;;;;;;;22.80;18.70;;;11.90;99.90;;;;;;2612457;46;20400;-77
2022/05/07 01:03:50;;;;;;;22.60;18.63;;;11.90;99.90;;;;;;2612624;54;20411;-76
2022/05/07 01:06:17;;;;;;;23.40;17.63;;;12.00;99.90;;;;;;2612024;47;20526;-80
2022/05/07 01:08:46;;;;;;;22.17;19.47;;;11.80;99.90;;;;;;2613166;54;20388;-78
2022/05/07 01:11:14;;;;;;;20.53;17.93;;;11.80;99.90;;;;;;2610920;54;20399;-76
2022/05/07 01:13:41;;;;;;;19.97;17.73;;;11.80;99.90;;;;;;2611929;39;20751;-76
2022/05/07 01:16:07;;;;;;;18.33;16.43;;;11.80;99.90;;;;;;2612744;47;20466;-76
2022/05/07 01:18:36;;;;;;;21.77;18.60;;;11.80;99.90;;;;;;2612493;47;20426;-75
2022/05/07 01:21:10;;;;;;;19.13;17.30;;;11.80;99.90;;;;;;2611379;54;20943;-76
2022/05/07 01:23:37;;;;;;;26.10;17.90;;;11.80;99.90;;;;;;2612892;39;20573;-76
2022/05/07 01:26:03;;;;;;;19.23;17.20;;;11.70;99.90;;;;;;2612830;47;20391;-77
2022/05/07 01:28:33;;;;;;;19.87;17.63;;;11.60;99.90;;;;;;2612815;54;20920;-77
2022/05/07 01:31:00;;;;;;;19.90;16.67;;;11.70;99.90;;;;;;2611835;54;20399;-77
2022/05/07 01:33:26;;;;;;;22.53;19.37;;;11.70;99.90;;;;;;2611749;54;20403;-77
2022/05/07 01:35:52;;;;;;;20.90;17.43;;;11.70;99.90;;;;;;2612458;54;20399;-77
2022/05/07 01:38:18;;;;;;;21.50;18.27;;;11.60;99.90;;;;;;2611447;54;20151;-76
2022/05/07 01:40:44;;;;;;;19.80;17.80;;;11.60;99.90;;;;;;2611634;54;20456;-75
2022/05/07 01:43:10;;;;;;;20.13;18.10;;;11.70;99.90;;;;;;2612095;47;20458;-74
2022/05/07 01:45:36;;;;;;;22.17;17.27;;;11.60;99.90;;;;;;2612573;47;20523;-75
2022/05/07 01:48:11;;;;;;;27.07;19.70;;;11.60;99.90;;;;;;2612645;54;20928;-75
2022/05/07 01:50:51;;;;;;;19.17;17.20;;;11.40;99.90;;;;;;2611769;54;20415;-79
2022/05/07 01:53:23;;;;;;;20.67;18.40;;;11.30;99.90;;;;;;2611706;39;20532;-78
2022/05/07 01:55:50;;;;;;;20.37;18.17;;;11.30;99.90;;;;;;2612931;39;20775;-79
2022/05/07 01:58:19;;;;;;;24.30;18.63;;;11.20;99.90;;;;;;2613092;47;20543;-78
2022/05/07 02:00:45;;;;;;;20.27;18.10;;;11.40;99.90;;;;;;2611565;54;20399;-73
2022/05/07 02:03:12;;;;;;;18.90;16.90;;;11.50;99.90;;;;;;2612494;47;21148;-73
2022/05/07 02:05:38;;;;;;;22.63;18.37;;;11.50;99.90;;;;;;2613309;54;20383;-76
2022/05/07 02:08:04;;;;;;;23.43;18.20;;;11.30;99.90;;;;;;2612345;39;20547;-76
2022/05/07 02:10:30;;;;;;;28.57;18.73;;;11.30;99.90;;;;;;2612749;47;20463;-79
2022/05/07 02:12:57;;;;;;;24.23;19.50;;;11.30;99.90;;;;;;2611343;47;20398;-78
2022/05/07 02:15:25;;;;;;;27.83;19.10;;;11.30;99.90;;;;;;2611843;47;20459;-79
2022/05/07 02:17:56;;;;;;;22.27;19.57;;;11.30;99.90;;;;;;2611955;54;20430;-79
2022/05/07 02:20:22;;;;;;;29.63;19.00;;;11.30;99.90;;;;;;2611680;54;20411;-79
2022/05/07 02:22:57;;;;;;;21.87;18.30;;;11.30;99.90;;;;;;2612329;54;20387;-80
2022/05/07 02:25:23;;;;;;;24.33;20.10;;;11.30;99.90;;;;;;2611860;54;20415;-79
2022/05/07 02:27:53;;;;;;;22.47;18.70;;;11.30;99.90;;;;;;2612461;39;20822;-78
2022/05/07 02:30:20;;;;;;;24.10;18.80;;;11.20;99.90;;;;;;2611388;47;20520;-79
2022/05/07 02:32:47;;;;;;;25.07;19.90;;;11.20;99.90;;;;;;2611606;54;20380;-79
2022/05/07 02:35:15;;;;;;;21.53;19.30;;;11.30;99.90;;;;;;2612298;54;20502;-78
2022/05/07 02:37:42;;;;;;;22.63;19.00;;;11.30;99.90;;;;;;2611498;54;21358;-79
2022/05/07 02:40:08;;;;;;;22.10;18.40;;;11.20;99.90;;;;;;2611720;54;20910;-78
2022/05/07 02:42:39;;;;;;;22.93;19.30;;;11.00;99.90;;;;;;2612454;47;20414;-78
2022/05/07 02:45:13;;;;;;;22.10;18.23;;;11.00;99.90;;;;;;2611766;54;20490;-74
2022/05/07 02:47:41;;;;;;;22.43;18.70;;;11.20;99.90;;;;;;2611048;54;20952;-74
2022/05/07 02:50:09;;;;;;;23.70;19.43;;;11.30;99.90;;;;;;2610542;47;20510;-76
2022/05/07 02:52:37;;;;;;;21.93;18.13;;;11.30;99.90;;;;;;2611204;47;20411;-76
2022/05/07 02:55:05;;;;;;;23.23;17.40;;;11.40;99.90;;;;;;2612445;47;20407;-79
2022/05/07 02:57:31;;;;;;;21.63;19.03;;;11.40;99.90;;;;;;2612322;47;20403;-80
2022/05/07 02:59:58;;;;;;;22.70;18.73;;;11.40;99.90;;;;;;2611777;47;20927;-80
2022/05/07 03:02:24;;;;;;;19.07;17.17;;;11.40;99.90;;;;;;2611789;46;20414;-79
2022/05/07 03:04:53;;;;;;;18.30;16.47;;;11.30;99.90;;;;;;2613332;54;20407;-80
2022/05/07 03:07:20;;;;;;;19.80;17.40;;;11.20;99.90;;;;;;2613488;47;20430;-80
2022/05/07 03:09:49;;;;;;;26.73;19.70;;;11.20;99.90;;;;;;2613050;47;20407;-74
2022/05/07 03:12:15;;;;;;;24.73;19.53;;;11.10;99.90;;;;;;2611478;47;20430;-74
2022/05/07 03:14:43;;;;;;;21.20;18.23;;;11.10;99.90;;;;;;2611782;54;20998;-74
2022/05/07 03:17:09;;;;;;;20.97;17.73;;;11.20;99.90;;;;;;2613299;54;20407;-75
2022/05/07 03:19:35;;;;;;;20.20;17.40;;;11.10;99.90;;;;;;2611015;54;20280;-76
2022/05/07 03:22:01;;;;;;;20.60;18.00;;;11.00;99.90;;;;;;2611982;54;20158;-76
2022/05/07 03:24:30;;;;;;;21.17;17.77;;;11.00;99.90;;;;;;2612263;54;20403;-82
2022/05/07 03:27:00;;;;;;;22.73;17.33;;;11.00;99.90;;;;;;2612689;47;20411;-82
2022/05/07 03:29:26;;;;;;;19.80;17.50;;;11.00;99.90;;;;;;2612354;47;20406;-83
2022/05/07 03:31:58;;;;;;;20.10;17.33;;;10.80;99.90;;;;;;2611025;47;20434;-82
2022/05/07 03:34:24;;;;;;;22.43;17.57;;;11.00;99.90;;;;;;2611857;54;20408;-76
2022/05/07 03:36:50;;;;;;;23.30;18.47;;;11.00;99.90;;;;;;2611787;54;20411;-77
2022/05/07 03:39:17;;;;;;;22.40;18.83;;;11.00;99.90;;;;;;2611438;54;20431;-77
2022/05/07 03:41:43;;;;;;;23.20;20.70;;;11.00;99.90;;;;;;2611475;47;20407;-76
2022/05/07 03:44:11;;;;;;;25.30;20.67;;;11.00;99.90;;;;;;2611745;39;20860;-76
2022/05/07 03:46:37;;;;;;;24.47;20.77;;;11.00;99.90;;;;;;2612854;31;20824;-76
2022/05/07 03:49:06;;;;;;;26.23;21.47;;;10.90;99.90;;;;;;2609712;47;20495;-76
2022/05/07 03:53:29;;;;;;;28.07;20.70;;;10.90;99.90;;;;;;2611427;47;20423;-82
2022/05/07 03:54:21;;;;;;;23.73;18.67;;;10.90;99.90;;;;;;2613085;47;20398;-78
2022/05/07 03:56:48;;;;;;;24.97;18.27;;;10.80;99.90;;;;;;2611054;39;20777;-79
2022/05/07 03:59:15;;;;;;;21.30;19.10;;;10.90;99.90;;;;;;2612031;47;20396;-79
2022/05/07 04:01:48;;;;;;;24.60;19.10;;;10.80;99.90;;;;;;2611685;47;20422;-78
2022/05/07 04:04:14;;;;;;;25.07;21.43;;;10.70;99.90;;;;;;2612280;47;20411;-79
2022/05/07 04:06:41;;;;;;;25.00;20.00;;;10.90;99.90;;;;;;2611599;47;20402;-80
2022/05/07 04:09:07;;;;;;;24.83;19.87;;;10.90;99.90;;;;;;2611414;54;20404;-80
2022/05/07 04:11:33;;;;;;;23.83;19.17;;;10.80;99.90;;;;;;2610519;47;20503;-74
2022/05/07 04:14:01;;;;;;;22.50;19.03;;;10.80;99.90;;;;;;2610697;51;20382;-74
2022/05/07 04:16:28;;;;;;;21.57;19.10;;;10.90;99.90;;;;;;2610377;47;20443;-75
2022/05/07 04:19:15;;;;;;;23.87;20.60;;;11.00;99.90;;;;;;2610399;54;20530;-74
2022/05/07 04:21:42;;;;;;;22.43;19.10;;;11.00;99.90;;;;;;2610616;54;20407;-74
2022/05/07 04:24:15;;;;;;;21.80;18.83;;;11.00;99.90;;;;;;2609523;54;20411;-74
2022/05/07 04:26:42;;;;;;;25.67;18.93;;;11.00;99.90;;;;;;2609843;47;21287;-74
2022/05/07 04:29:09;;;;;;;23.93;20.00;;;11.00;99.90;;;;;;2610364;47;20410;-74
2022/05/07 04:31:36;;;;;;;21.03;18.43;;;11.30;99.90;;;;;;2611075;47;20415;-74
2022/05/07 04:34:06;;;;;;;21.77;18.30;;;11.20;99.90;;;;;;2610202;54;20486;-75
2022/05/07 04:36:34;;;;;;;25.73;18.00;;;11.30;99.90;;;;;;2610904;39;20906;-74
2022/05/07 04:39:05;;;;;;;22.63;19.07;;;11.40;99.90;;;;;;2609937;47;20395;-74
2022/05/07 04:41:36;;;;;;;26.63;19.97;;;11.50;99.90;;;;;;2610880;47;20518;-79
2022/05/07 04:44:03;;;;;;;31.70;20.30;;;11.60;99.90;;;;;;2611873;54;20399;-78
2022/05/07 04:46:30;;;;;;;27.90;21.67;;;11.70;99.90;;;;;;2610409;54;20404;-74
2022/05/07 04:49:03;;;;;;;29.23;20.47;;;11.70;99.90;;;;;;2611406;47;20420;-74
2022/05/07 04:51:29;;;;;;;27.40;21.07;;;11.80;99.90;;;;;;2612220;39;20453;-74
2022/05/07 04:54:01;;;;;;;24.40;19.63;;;11.90;99.90;;;;;;2612229;54;21096;-74
2022/05/07 04:56:28;;;;;;;21.73;17.77;;;12.10;99.90;;;;;;2612146;46;20399;-79
2022/05/07 04:59:01;;;;;;;23.50;20.03;;;12.30;99.90;;;;;;2611926;54;20426;-78
2022/05/07 05:01:34;;;;;;;19.87;17.87;;;12.50;99.90;;;;;;2611385;39;20478;-78
2022/05/07 05:04:03;;;;;;;25.63;20.00;;;12.60;99.90;;;;;;2613524;39;20768;-80
2022/05/07 05:06:32;;;;;;;25.40;18.80;;;12.60;99.90;;;;;;2612721;47;20391;-80
2022/05/07 05:09:06;;;;;;;21.20;17.73;;;12.80;99.90;;;;;;2611987;47;20408;-80
2022/05/07 05:11:35;;;;;;;20.10;17.97;;;13.00;99.90;;;;;;2611560;54;20974;-79
2022/05/07 05:15:01;;;;;;;22.27;19.03;;;13.10;99.90;;;;;;2611747;47;20392;-79
2022/05/07 05:16:47;;;;;;;23.27;19.50;;;13.20;99.90;;;;;;2611231;39;20788;-73
2022/05/07 05:19:13;;;;;;;21.97;19.37;;;13.10;99.90;;;;;;2610220;54;20410;-74
2022/05/07 05:21:39;;;;;;;20.53;18.33;;;13.10;99.90;;;;;;2610200;54;20657;-75
2022/05/07 05:24:14;;;;;;;24.40;20.07;;;13.10;99.90;;;;;;2609589;54;20406;-75
2022/05/07 05:26:40;;;;;;;21.50;18.87;;;13.10;99.90;;;;;;2610357;54;20372;-75
2022/05/07 05:29:11;;;;;;;23.10;19.37;;;13.40;99.90;;;;;;2612080;47;20159;-75
2022/05/07 05:31:37;;;;;;;23.33;19.33;;;13.40;99.90;;;;;;2612562;39;20813;-75
2022/05/07 05:34:14;;;;;;;23.20;20.07;;;13.60;99.90;;;;;;2611377;54;20411;-76
2022/05/07 05:36:47;;;;;;;23.60;20.77;;;13.80;99.90;;;;;;2611150;54;20398;-75
2022/05/07 05:39:14;;;;;;;24.50;19.63;;;13.70;99.90;;;;;;2611679;47;20398;-75
2022/05/07 05:41:44;;;;;;;24.30;20.17;;;13.60;99.90;;;;;;2611560;54;20404;-75
2022/05/07 05:44:10;;;;;;;23.70;19.97;;;13.80;99.90;;;;;;2612425;54;20405;-74
2022/05/07 05:46:37;;;;;;;27.20;18.80;;;14.20;99.90;;;;;;2611677;54;20518;-79
2022/05/07 05:49:04;;;;;;;21.30;19.00;;;14.40;99.90;;;;;;2612082;47;20514;-79
2022/05/07 05:51:31;;;;;;;23.70;19.77;;;14.70;99.90;;;;;;2613154;47;20414;-83
2022/05/07 05:53:57;;;;;;;23.20;18.77;;;15.00;99.90;;;;;;2612496;54;20948;-83
2022/05/07 05:56:23;;;;;;;23.87;20.30;;;15.30;99.90;;;;;;2612594;47;21042;-81
2022/05/07 05:58:55;;;;;;;25.57;21.33;;;15.40;96.50;;;;;;2612888;46;20454;-80
2022/05/07 06:01:26;;;;;;;21.57;19.43;;;15.70;93.60;;;;;;2613293;39;20713;-80
2022/05/07 06:04:18;;;;;;;23.60;20.07;;;15.80;92.20;;;;;;2613747;47;21167;-80
2022/05/07 06:06:45;;;;;;;23.77;20.93;;;15.90;91.70;;;;;;2612864;47;20402;-79
2022/05/07 06:09:12;;;;;;;21.70;19.40;;;16.20;91.00;;;;;;2613617;54;20428;-78
2022/05/07 06:11:40;;;;;;;25.73;20.90;;;16.60;84.50;;;;;;2611827;54;20416;-78
2022/05/07 06:14:06;;;;;;;26.00;23.43;;;16.60;81.20;;;;;;2612437;54;20400;-78
2022/05/07 06:16:33;;;;;;;27.30;23.00;;;16.80;79.90;;;;;;2613042;39;20796;-77
2022/05/07 06:19:03;;;;;;;24.87;22.23;;;17.00;71.20;;;;;;2612019;47;20412;-77
2022/05/07 06:21:31;;;;;;;26.53;23.40;;;16.80;71.50;;;;;;2611147;47;20407;-74
2022/05/07 06:27:28;;;;;;;25.07;22.47;;;16.60;73.90;;;;;;2611396;47;20479;-74
2022/05/07 06:29:28;;;;;;;26.37;23.50;;;16.20;80.80;;;;;;2611979;47;20492;-74
2022/05/07 06:31:54;;;;;;;27.97;23.33;;;16.20;84.80;;;;;;2612026;46;20405;-74
2022/05/07 06:34:22;;;;;;;24.07;21.53;;;16.70;81.80;;;;;;2612685;54;20397;-75
2022/05/07 06:36:54;;;;;;;28.17;23.47;;;17.10;73.50;;;;;;2610270;47;20763;-74
2022/05/07 06:39:22;;;;;;;22.60;20.33;;;17.30;72.40;;;;;;2612214;39;20786;-74
2022/05/07 06:41:49;;;;;;;23.50;21.10;;;17.50;71.40;;;;;;2611669;47;20417;-73
2022/05/07 06:44:15;;;;;;;26.30;22.03;;;17.70;62.80;;;;;;2629794;36;20452;-73
2022/05/07 06:46:44;;;;;;;30.73;23.57;;;17.60;65.10;;;;;;2612340;47;20410;-75
2022/05/07 06:49:11;;;;;;;29.90;23.10;;;17.50;64.90;;;;;;2611247;47;20406;-75
2022/05/07 06:51:47;;;;;;;29.53;24.17;;;17.50;69.30;;;;;;2612727;54;20403;-77
2022/05/07 06:54:13;;;;;;;26.50;23.40;;;17.60;68.70;;;;;;2613208;47;20444;-80
2022/05/07 06:56:39;;;;;;;31.33;25.10;;;18.00;64.20;;;;;;2612849;54;20411;-78
2022/05/07 06:59:05;;;;;;;27.27;24.23;;;18.20;62.60;;;;;;2612244;47;20493;-78
2022/05/07 07:01:31;;;;;;;26.27;23.60;;;18.50;54.00;;;;;;2612723;54;20410;-78
2022/05/07 07:03:57;;;;;;;27.77;24.87;;;18.20;55.50;;;;;;2612421;54;20406;-78
2022/05/07 07:06:23;;;;;;;25.80;23.10;;;18.40;54.80;;;;;;2612859;47;20155;-79
2022/05/07 07:08:52;;;;;;;26.13;23.30;;;18.50;53.20;;;;;;2611371;54;20430;-78
2022/05/07 07:11:18;;;;;;;27.70;23.90;;;18.70;50.70;;;;;;2612259;54;20426;-77
2022/05/07 07:13:45;;;;;;;26.33;22.53;;;18.90;51.50;;;;;;2612299;54;20399;-78
2022/05/07 07:16:11;;;;;;;25.10;22.40;;;19.30;42.80;;;;;;2612898;54;20422;-78
2022/05/07 07:18:37;;;;;;;29.47;23.90;;;19.30;41.70;;;;;;2611215;54;20949;-79
2022/05/07 07:21:03;;;;;;;25.67;22.63;;;19.30;41.90;;;;;;2611219;54;20462;-78
2022/05/07 07:23:28;;;;;;;30.67;23.30;;;19.40;43.10;;;;;;2612796;54;20150;-78
2022/05/07 07:25:55;;;;;;;26.07;22.10;;;19.50;39.60;;;;;;2612052;54;20514;-77
2022/05/07 07:28:20;;;;;;;27.23;22.53;;;19.70;38.80;;;;;;2612727;39;21186;-78
2022/05/07 07:30:46;;;;;;;27.80;22.23;;;20.00;37.20;;;;;;2611850;54;20419;-79
2022/05/07 07:33:15;;;;;;;25.23;21.50;;;20.20;34.50;;;;;;2612759;47;20284;-78
2022/05/07 07:35:43;;;;;;;27.83;24.07;;;20.30;31.90;;;;;;2613849;54;20170;-79
2022/05/07 07:38:10;;;;;;;28.93;23.77;;;20.30;31.30;;;;;;2613381;54;20435;-77
2022/05/07 07:40:36;;;;;;;25.33;22.67;;;20.60;30.30;;;;;;2612919;51;20429;-78
2022/05/07 07:43:03;;;;;;;29.60;22.00;;;20.90;28.00;;;;;;2613336;47;20384;-80
2022/05/07 07:48:14;;;;;;;26.43;22.00;;;21.50;24.80;;;;;;2613209;54;20995;-79
2022/05/07 07:50:40;;;;;;;24.30;20.60;;;21.70;19.80;;;;;;2613382;54;20427;-78
2022/05/07 07:53:08;;;;;;;24.50;21.87;;;21.80;15.40;;;;;;2613217;54;20150;-77
2022/05/07 07:55:36;;;;;;;27.17;19.87;;;21.80;14.10;;;;;;2612776;54;20404;-78
2022/05/07 07:58:07;;;;;;;27.47;21.63;;;21.80;11.30;;;;;;2613578;54;20407;-78
2022/05/07 08:00:35;;;;;;;26.00;22.40;;;22.20;11.00;;;;;;2613410;54;20391;-77
2022/05/07 08:03:08;;;;;;;23.50;20.77;;;22.80;6.00;;;;;;2613287;54;20421;-78
2022/05/07 08:05:35;;;;;;;21.73;19.70;;;23.10;4.50;;;;;;2613744;52;20441;-79
2022/05/07 08:13:36;;;;;;;22.63;20.27;;;22.70;2.30;;;;;;2614732;54;20396;-78
2022/05/07 08:16:03;;;;;;;21.90;19.70;;;23.00;1.60;;;;;;2614388;54;20433;-78
2022/05/07 08:18:30;;;;;;;24.93;21.13;;;23.10;1.80;;;;;;2614712;54;20404;-78
2022/05/07 08:20:56;;;;;;;24.27;20.77;;;23.30;2.30;;;;;;2615547;47;20415;-78
2022/05/07 08:23:22;;;;;;;25.80;19.80;;;23.60;1.00;;;;;;2618843;54;21034;-76
2022/05/07 08:25:49;;;;;;;22.20;19.00;;;23.70;1.00;;;;;;2616704;54;20408;-82
2022/05/07 08:28:19;;;;;;;21.07;19.07;;;23.70;1.00;;;;;;2615885;54;20537;-78
2022/05/07 08:30:45;;;;;;;22.13;19.83;;;24.40;1.00;;;;;;2615565;47;20405;-79
2022/05/07 08:33:11;;;;;;;26.23;20.43;;;24.80;1.00;;;;;;2616121;54;20506;-78
2022/05/07 08:35:38;;;;;;;22.80;19.87;;;24.30;1.00;;;;;;2615012;47;20395;-85
2022/05/07 08:38:04;;;;;;;21.77;19.60;;;24.60;1.00;;;;;;2615005;54;20408;-83
2022/05/07 08:40:30;;;;;;;22.90;19.30;;;24.30;1.00;;;;;;2615124;54;20471;-81
2022/05/07 08:42:57;;;;;;;24.77;22.33;;;24.40;1.00;;;;;;2614323;54;20461;-81
2022/05/07 08:45:23;;;;;;;23.20;20.80;;;24.30;1.00;;;;;;2615414;39;20561;-83
2022/05/07 08:47:53;;;;;;;24.73;18.97;;;24.50;1.00;;;;;;2615883;54;20399;-87
2022/05/07 08:50:22;;;;;;;24.10;20.53;;;24.80;1.00;;;;;;2616298;54;20415;-85
2022/05/07 08:52:49;;;;;;;23.57;19.33;;;25.10;1.00;;;;;;2615804;39;20684;-84
2022/05/07 08:55:19;;;;;;;26.20;21.57;;;25.00;1.00;;;;;;2614921;54;20431;-84
2022/05/07 08:57:47;;;;;;;22.67;19.60;;;25.10;1.00;;;;;;2614834;39;20765;-84
2022/05/07 09:00:15;;;;;;;24.07;20.97;;;25.40;1.00;;;;;;2613479;54;20395;-84
2022/05/07 09:03:07;;;;;;;29.67;20.03;;;25.00;1.00;;;;;;2614787;51;20430;-85
2022/05/07 09:05:37;;;;;;;24.90;21.03;;;25.70;1.00;;;;;;2614971;54;21009;-84
2022/05/07 09:08:06;;;;;;;24.63;21.03;;;26.00;1.00;;;;;;2614804;47;20407;-82
2022/05/07 09:10:34;;;;;;;25.13;22.53;;;26.00;1.00;;;;;;2613843;54;20438;-82
2022/05/07 09:13:14;;;;;;;25.03;22.10;;;26.10;1.00;;;;;;2615017;39;20892;-82
2022/05/07 09:15:58;;;;;;;26.83;24.03;;;26.10;1.00;;;;;;2613136;54;20419;-85
2022/05/07 09:18:26;;;;;;;24.80;22.07;;;25.90;1.00;;;;;;2614038;54;20388;-82
2022/05/07 09:21:24;;;;;;;24.10;21.57;;;25.80;1.00;;;;;;2613468;39;20797;-82
2022/05/07 09:23:56;;;;;;;22.30;20.20;;;25.90;1.00;;;;;;2614555;54;20400;-84
2022/05/07 09:26:32;;;;;;;26.67;22.87;;;25.90;1.00;;;;;;2614119;54;20392;-84
2022/05/07 09:29:00;;;;;;;26.63;23.93;;;26.10;1.00;;;;;;2613525;54;20388;-84
2022/05/07 09:31:28;;;;;;;27.20;24.33;;;26.20;1.00;;;;;;2613749;54;20514;-81
2022/05/07 09:33:55;;;;;;;26.80;24.30;;;25.90;1.00;;;;;;2613131;54;20405;-81
2022/05/07 09:36:24;;;;;;;29.93;26.90;;;25.70;1.00;;;;;;2613367;54;20927;-82
2022/05/07 09:39:04;;;;;;;26.27;23.57;;;25.90;1.00;;;;;;2613490;54;20406;-82
2022/05/07 09:41:30;;;;;;;27.67;25.03;;;26.30;1.00;;;;;;2612794;54;20437;-84
2022/05/07 09:43:58;;;;;;;28.00;25.47;;;26.50;1.00;;;;;;2614946;39;20754;-82
2022/05/07 09:46:25;;;;;;;28.93;26.03;;;26.50;1.00;;;;;;2613117;54;20400;-84
2022/05/07 09:48:52;;;;;;;31.40;28.20;;;26.40;1.00;;;;;;2613883;54;20385;-82
2022/05/07 09:51:19;;;;;;;32.53;29.50;;;26.00;1.00;;;;;;2614570;54;20530;-83
2022/05/07 09:59:19;;;;;;;31.57;28.77;;;26.10;1.00;;;;;;2614301;54;20396;-82
2022/05/07 10:02:02;;;;;;;33.27;29.80;;;26.10;1.00;;;;;;2614656;46;20429;-84
2022/05/07 10:04:47;;;;;;;32.30;29.40;;;26.30;1.00;;;;;;2614241;46;20407;-81
2022/05/07 10:08:08;;;;;;;31.73;28.50;;;26.50;1.00;;;;;;2614047;39;20789;-81
2022/05/07 10:10:37;;;;;;;30.53;27.53;;;27.10;1.00;;;;;;2612301;54;20501;-81
2022/05/07 10:13:07;;;;;;;32.10;29.00;;;27.20;1.00;;;;;;2612112;54;20392;-82
2022/05/07 10:15:33;;;;;;;28.43;25.60;;;26.90;1.00;;;;;;2612645;54;20970;-85
2022/05/07 10:18:14;;;;;;;30.70;27.60;;;26.90;1.00;;;;;;2612448;54;20444;-82
2022/05/07 10:20:45;;;;;;;31.10;26.13;;;26.90;1.00;;;;;;2611968;54;20151;-83
2022/05/07 10:23:12;;;;;;;29.57;26.37;;;26.40;1.00;;;;;;2612326;54;20419;-83
2022/05/07 10:25:40;;;;;;;30.20;25.47;;;26.00;1.00;;;;;;2612479;54;20430;-84
2022/05/07 10:28:09;;;;;;;25.37;22.53;;;26.10;1.00;;;;;;2612621;47;20415;-84
2022/05/07 10:30:48;;;;;;;26.73;24.13;;;26.30;1.00;;;;;;2612330;54;20916;-84
2022/05/07 10:33:15;;;;;;;27.43;23.77;;;27.00;1.00;;;;;;2613058;39;20866;-84
2022/05/07 10:35:51;;;;;;;27.93;25.40;;;27.10;1.00;;;;;;2612540;54;20989;-83
2022/05/07 10:38:23;;;;;;;27.53;24.37;;;27.20;1.00;;;;;;2612196;54;20462;-83
2022/05/07 10:40:50;;;;;;;29.17;26.23;;;27.50;1.00;;;;;;2612391;54;20985;-84
2022/05/07 10:43:33;;;;;;;25.83;23.30;;;27.50;1.00;;;;;;2611220;54;20451;-83
2022/05/07 10:46:12;;;;;;;26.03;23.40;;;27.40;1.00;;;;;;2613400;54;20405;-81
2022/05/07 10:49:07;;;;;;;23.57;21.20;;;27.20;1.00;;;;;;2613647;54;20415;-81
2022/05/07 10:51:50;;;;;;;24.40;22.30;;;26.30;1.00;;;;;;2612773;54;20419;-77
2022/05/07 10:54:23;;;;;;;34.47;23.57;;;25.70;1.00;;;;;;2613234;51;20520;-78
2022/05/07 10:56:56;;;;;;;26.93;24.03;;;25.80;1.00;;;;;;2613122;54;20398;-77
2022/05/07 10:59:26;;;;;;;24.27;21.67;;;25.90;1.00;;;;;;2613811;39;20874;-77
2022/05/07 11:02:04;;;;;;;23.97;21.37;;;25.90;1.00;;;;;;2612220;46;20419;-77
2022/05/07 11:04:29;;;;;;;20.87;18.90;;;25.60;1.00;;;;;;2612271;47;20422;-82
2022/05/07 11:06:55;;;;;;;21.03;18.93;;;25.40;1.00;;;;;;2612829;39;20761;-82
2022/05/07 11:09:25;;;;;;;23.17;20.03;;;25.90;1.00;;;;;;2613381;47;20930;-82
2022/05/07 11:11:55;;;;;;;22.03;19.60;;;26.40;1.00;;;;;;2613463;54;20190;-81
2022/05/07 11:14:25;;;;;;;20.40;18.53;;;26.80;1.00;;;;;;2611762;54;20396;-82
2022/05/07 11:16:53;;;;;;;18.83;17.13;;;26.80;1.00;;;;;;2612682;47;20444;-82
2022/05/07 11:19:30;;;;;;;20.00;18.10;;;26.50;1.00;;;;;;2613159;54;20383;-81
2022/05/07 11:21:57;;;;;;;17.33;15.90;;;26.30;1.00;;;;;;2614016;39;20801;-81
2022/05/07 11:24:26;;;;;;;15.57;13.97;;;26.10;1.00;;;;;;2613804;54;20408;-81
2022/05/07 11:27:02;;;;;;;19.70;17.67;;;26.40;1.00;;;;;;2611462;54;20481;-81
2022/05/07 11:29:29;;;;;;;20.83;18.80;;;26.10;1.00;;;;;;2612202;46;20399;-80
2022/05/07 11:32:04;;;;;;;18.00;16.33;;;25.50;1.00;;;;;;2613583;54;20406;-79
2022/05/07 11:34:36;;;;;;;18.70;17.10;;;25.50;1.00;;;;;;2613934;54;20403;-80
2022/05/07 11:37:22;;;;;;;20.33;18.30;;;25.60;1.00;;;;;;2610728;54;20403;-75
2022/05/07 11:39:58;;;;;;;18.63;16.83;;;25.10;1.00;;;;;;2612799;54;20408;-72
2022/05/07 11:42:28;;;;;;;25.53;21.97;;;25.30;1.00;;;;;;2611467;47;20391;-74
2022/05/07 11:47:56;;;;;;;25.60;21.87;;;24.70;3.20;;;;;;2611227;54;20403;-79
2022/05/07 11:50:40;;;;;;;25.73;20.70;;;24.00;5.60;;;;;;2609538;54;20971;-78
2022/05/07 11:53:13;;;;;;;24.73;21.50;;;23.40;8.80;;;;;;2611528;47;20425;-77
2022/05/07 11:55:40;;;;;;;28.50;24.00;;;23.00;19.40;;;;;;2612091;54;20411;-77
2022/05/07 11:58:23;;;;;;;25.07;22.30;;;22.60;20.30;;;;;;2613610;54;20426;-77
2022/05/07 12:00:55;;;;;;;26.43;23.67;;;22.40;16.00;;;;;;2610620;47;20439;-77
2022/05/07 12:03:26;;;;;;;26.23;23.10;;;22.40;23.20;;;;;;2613134;47;20984;-78
2022/05/07 12:05:54;;;;;;;26.40;23.60;;;22.50;20.10;;;;;;2612345;54;20395;-77
2022/05/07 12:08:38;;;;;;;24.20;21.77;;;22.80;10.90;;;;;;2611687;54;21018;-80
2022/05/07 12:11:04;;;;;;;24.40;22.03;;;23.00;15.50;;;;;;2612532;54;20428;-80
2022/05/07 12:13:31;;;;;;;26.83;23.93;;;23.00;17.30;;;;;;2613267;47;20403;-80
2022/05/07 12:18:48;;;;;;;29.57;24.00;;;23.20;11.60;;;;;;2613504;54;20404;-79
2022/05/07 12:21:15;;;;;;;28.07;25.27;;;23.00;7.10;;;;;;2612972;47;20396;-79
2022/05/07 12:32:01;;;;;;;29.03;25.93;;;21.50;33.40;;;;;;2612649;54;20395;-78
2022/05/07 12:34:27;;;;;;;28.80;25.97;;;21.40;33.40;;;;;;2613034;47;20496;-78
2022/05/07 12:36:53;;;;;;;28.10;25.10;;;21.50;41.10;;;;;;2613217;54;20408;-78
2022/05/07 12:39:19;;;;;;;30.00;26.77;;;21.40;40.30;;;;;;2613831;54;20986;-78
2022/05/07 12:41:45;;;;;;;30.93;27.13;;;21.30;36.10;;;;;;2613501;54;20174;-78
2022/05/07 12:44:11;;;;;;;25.97;23.53;;;21.40;41.30;;;;;;2613350;54;20394;-79
2022/05/07 12:46:37;;;;;;;25.33;22.93;;;21.40;37.90;;;;;;2613529;54;20403;-77
2022/05/07 12:49:03;;;;;;;33.60;24.63;;;21.40;16.20;;;;;;2613759;39;20797;-78
2022/05/07 12:51:29;;;;;;;23.77;21.50;;;21.60;23.90;;;;;;2614048;54;20395;-79
2022/05/07 12:53:55;;;;;;;26.50;23.83;;;21.80;17.60;;;;;;2614046;54;20391;-78
2022/05/07 12:56:24;;;;;;;25.47;23.07;;;22.20;30.90;;;;;;2613264;47;20390;-78
2022/05/07 12:58:50;;;;;;;23.53;21.33;;;22.60;17.90;;;;;;2613920;54;20430;-78
2022/05/07 13:01:16;;;;;;;22.10;19.57;;;22.60;8.20;;;;;;2613476;54;20399;-77
2022/05/07 13:03:43;;;;;;;21.40;19.17;;;22.50;7.00;;;;;;2613939;54;20400;-77
2022/05/07 13:06:10;;;;;;;20.50;18.20;;;22.90;7.90;;;;;;2613016;54;21034;-78
2022/05/07 13:08:36;;;;;;;20.00;18.00;;;23.10;3.50;;;;;;2613720;47;20410;-78
2022/05/07 13:11:01;;;;;;;21.10;19.00;;;23.40;1.20;;;;;;2615215;54;20419;-79
2022/05/07 13:13:27;;;;;;;21.27;19.07;;;23.20;1.00;;;;;;2614653;54;20151;-79
2022/05/07 13:15:53;;;;;;;17.23;15.43;;;23.20;1.00;;;;;;2613879;54;20430;-79